createdAt,value
2023-01-07T00:04:58.961Z,0.0
2023-01-07T00:09:59.862Z,0.0
2023-01-07T00:15:00.829Z,0.0
2023-01-07T00:20:01.757Z,0.0
2023-01-07T00:25:02.798Z,0.0
2023-01-07T00:30:03.799Z,0.0
2023-01-07T00:35:04.798Z,0.0
2023-01-07T00:40:05.697Z,0.0
2023-01-07T00:45:06.712Z,0.0
2023-01-07T00:50:07.696Z,0.0
2023-01-07T00:55:08.645Z,0.0
2023-01-07T01:00:09.592Z,0.0
2023-01-07T01:05:10.532Z,0.0
2023-01-07T01:10:11.538Z,0.0
2023-01-07T01:15:12.486Z,0.0
2023-01-07T01:20:13.444Z,0.0
2023-01-07T01:25:14.418Z,0.0
2023-01-07T01:30:15.358Z,0.0
2023-01-07T01:35:16.333Z,0.0
2023-01-07T01:40:17.312Z,0.0
2023-01-07T01:45:18.270Z,0.0
2023-01-07T01:50:19.218Z,0.0
2023-01-07T01:55:20.192Z,0.0
2023-01-07T02:00:21.143Z,0.0
2023-01-07T02:05:22.088Z,0.0
2023-01-07T02:10:23.090Z,0.0
2023-01-07T02:15:24.055Z,0.0
2023-01-07T02:20:24.981Z,0.0
2023-01-07T02:25:25.964Z,0.0
2023-01-07T02:30:26.914Z,0.0
2023-01-07T02:35:27.864Z,0.0
2023-01-07T02:40:28.829Z,0.0
2023-01-07T02:45:29.806Z,0.0
2023-01-07T02:50:30.948Z,0.0
2023-01-07T02:55:32.388Z,0.0
2023-01-07T03:00:33.349Z,0.0
2023-01-07T03:05:34.411Z,0.0
2023-01-07T03:10:35.443Z,0.0
2023-01-07T03:15:36.422Z,0.0
2023-01-07T03:20:37.407Z,0.0
2023-01-07T03:25:38.385Z,0.0
2023-01-07T03:30:39.362Z,0.0
2023-01-07T03:35:40.325Z,0.0
2023-01-07T03:40:41.266Z,0.0
2023-01-07T03:45:42.277Z,0.0
2023-01-07T03:50:43.456Z,0.0
2023-01-07T03:55:44.450Z,0.0
2023-01-07T04:00:45.513Z,0.0
2023-01-07T04:05:46.497Z,0.0
2023-01-07T04:10:47.409Z,0.0
2023-01-07T04:15:48.359Z,0.0
2023-01-07T04:20:49.353Z,0.0
2023-01-07T04:25:50.357Z,0.0
2023-01-07T04:30:51.342Z,0.0
2023-01-07T04:35:52.335Z,0.0
2023-01-07T04:40:53.374Z,0.0
2023-01-07T04:45:54.362Z,0.0
2023-01-07T04:50:55.319Z,0.0
2023-01-07T04:55:56.362Z,0.0
2023-01-07T05:00:57.338Z,0.0
2023-01-07T05:05:58.309Z,0.0
2023-01-07T05:10:59.237Z,0.0
2023-01-07T05:16:00.183Z,0.0
2023-01-07T05:21:01.143Z,0.0
2023-01-07T05:26:02.179Z,0.0
2023-01-07T05:31:03.224Z,0.0
2023-01-07T05:36:04.216Z,0.0
2023-01-07T05:41:05.233Z,0.0
2023-01-07T05:46:06.292Z,0.0
2023-01-07T05:51:07.276Z,0.0
2023-01-07T05:56:08.209Z,0.0
2023-01-07T06:01:09.210Z,0.0
2023-01-07T06:06:10.269Z,0.0
2023-01-07T06:11:11.241Z,0.0
2023-01-07T06:16:12.277Z,0.0
2023-01-07T06:21:13.377Z,0.0
2023-01-07T06:26:14.318Z,0.0
2023-01-07T06:31:15.305Z,0.0
2023-01-07T06:36:16.223Z,0.0
2023-01-07T06:41:17.162Z,0.0
2023-01-07T06:46:18.225Z,0.47405
2023-01-07T06:51:19.301Z,1.53075
2023-01-07T06:56:20.254Z,1.6592
2023-01-07T07:01:21.319Z,6.7315
2023-01-07T07:06:22.350Z,6.123
2023-01-07T07:11:23.294Z,16.21075
2023-01-07T07:16:24.367Z,35.5933
2023-01-07T07:21:25.338Z,46.2344
2023-01-07T07:26:26.304Z,37.6774
2023-01-07T07:31:27.329Z,44.7588
2023-01-07T07:36:28.322Z,64.3258
2023-01-07T07:41:29.263Z,109.89655
2023-01-07T07:46:30.280Z,129.83245
2023-01-07T07:51:31.487Z,147.07575
2023-01-07T07:56:32.785Z,151.8886
2023-01-07T08:01:36.446Z,133.5386
2023-01-07T08:06:38.217Z,131.39935
2023-01-07T08:11:39.180Z,149.50975
2023-01-07T08:16:40.158Z,173.3001
2023-01-07T08:21:41.137Z,211.03265
2023-01-07T08:26:42.087Z,223.813
2023-01-07T08:31:43.165Z,259.57175
2023-01-07T08:36:44.158Z,262.52295
2023-01-07T08:41:45.115Z,218.2072
2023-01-07T08:46:46.233Z,379.189
2023-01-07T08:51:47.192Z,857.18855
2023-01-07T08:56:48.210Z,1680.1908
2023-01-07T09:01:49.249Z,1902.90265
2023-01-07T09:06:50.331Z,823.1677
2023-01-07T09:11:51.277Z,561.7116
2023-01-07T09:16:52.280Z,490.506
2023-01-07T09:21:53.229Z,308.6109
2023-01-07T09:26:54.202Z,280.54205
2023-01-07T09:31:55.315Z,392.33825
2023-01-07T09:36:56.289Z,448.73455
2023-01-07T09:41:57.211Z,591.7904
2023-01-07T09:52:08.727Z,1288.7785
2023-01-07T09:57:09.688Z,1376.9118
2023-01-07T10:02:10.618Z,1942.6813
2023-01-07T10:07:11.604Z,1031.13885
2023-01-07T10:12:12.531Z,588.5996
2023-01-07T10:17:13.405Z,1075.5649
2023-01-07T10:22:14.354Z,928.282
2023-01-07T10:27:15.352Z,1181.66215
2023-01-07T10:32:16.274Z,1220.0412
2023-01-07T10:37:17.183Z,1136.42415
2023-01-07T10:42:18.166Z,687.37585
2023-01-07T10:47:19.215Z,581.68365
2023-01-07T10:52:20.118Z,607.35465
2023-01-07T10:57:21.124Z,794.76425
2023-01-07T11:02:22.350Z,862.9825
2023-01-07T11:07:23.654Z,1252.79545
2023-01-07T11:12:24.589Z,1311.23785
2023-01-07T11:17:25.515Z,1071.54315
2023-01-07T11:22:26.448Z,908.4031
2023-01-07T11:27:27.415Z,938.00455
2023-01-07T11:32:28.365Z,955.6719
2023-01-07T11:37:29.308Z,934.79475
2023-01-07T11:42:30.256Z,774.9938
2023-01-07T11:47:31.193Z,761.4585
2023-01-07T11:52:32.445Z,660.2844
2023-01-07T11:57:33.679Z,735.084
2023-01-07T12:02:34.713Z,720.7349
2023-01-07T12:07:35.681Z,744.1202
2023-01-07T12:12:36.612Z,629.909
2023-01-07T12:17:37.521Z,516.9148
2023-01-07T12:22:38.429Z,523.11195
2023-01-07T12:27:39.351Z,539.63645
2023-01-07T12:32:40.318Z,591.14575
2023-01-07T12:37:41.265Z,680.68235
2023-01-07T12:42:42.191Z,693.51785
2023-01-07T12:47:43.147Z,800.9804
2023-01-07T12:52:44.335Z,900.7702
2023-01-07T12:57:45.258Z,767.4332
2023-01-07T13:02:46.177Z,636.9181
2023-01-07T13:07:47.106Z,632.95335
2023-01-07T13:12:48.079Z,670.99965
2023-01-07T13:17:49.013Z,638.70745
2023-01-07T13:22:49.964Z,681.2357
2023-01-07T13:27:50.901Z,731.6193
2023-01-07T13:32:51.867Z,749.58325
2023-01-07T13:37:52.936Z,707.93925
2023-01-07T13:42:53.870Z,653.7012
2023-01-07T13:47:54.850Z,592.37805
2023-01-07T13:52:55.824Z,538.30545
2023-01-07T13:57:56.879Z,509.68325
2023-01-07T14:02:57.909Z,486.00505
2023-01-07T14:07:58.890Z,470.25635
2023-01-07T14:12:59.785Z,446.65045
2023-01-07T14:18:00.707Z,408.77145
2023-01-07T14:23:01.615Z,367.09315
2023-01-07T14:28:02.622Z,341.5686
2023-01-07T14:33:03.543Z,306.7131
2023-01-07T14:38:04.465Z,289.92815
2023-01-07T14:43:05.398Z,239.65485
2023-01-07T14:48:06.347Z,184.5687
2023-01-07T14:53:07.309Z,147.0206
2023-01-07T14:58:08.230Z,113.751
2023-01-07T15:03:09.190Z,83.22915
2023-01-07T15:08:10.131Z,57.53915
2023-01-07T15:13:11.076Z,33.32475
2023-01-07T15:18:12.024Z,20.9133
2023-01-07T15:23:12.992Z,8.87075
2023-01-07T15:28:14.951Z,2.1925
2023-01-07T15:33:15.900Z,4.6474
2023-01-07T15:38:16.828Z,0.4148
2023-01-07T15:43:17.727Z,0.0
2023-01-07T15:48:18.726Z,0.4148
2023-01-07T15:53:19.696Z,0.0
2023-01-07T15:58:20.700Z,0.0
2023-01-07T16:03:21.629Z,0.0
2023-01-07T16:08:22.551Z,0.0
2023-01-07T16:13:23.500Z,0.0
2023-01-07T16:18:24.419Z,0.0
2023-01-07T16:23:25.368Z,0.0
2023-01-07T16:28:26.267Z,0.0
2023-01-07T16:33:27.306Z,0.0
2023-01-07T16:38:28.249Z,0.0
2023-01-07T16:43:29.289Z,0.0
2023-01-07T16:48:30.258Z,0.0
2023-01-07T16:53:31.266Z,0.0
2023-01-07T16:58:32.454Z,0.0
2023-01-07T17:03:33.712Z,0.0
2023-01-07T17:08:34.622Z,0.0
2023-01-07T17:13:35.949Z,0.0
2023-01-07T17:18:36.848Z,0.0
2023-01-07T17:23:37.751Z,0.0
2023-01-07T17:28:38.655Z,0.0
2023-01-07T17:33:39.595Z,0.0
2023-01-07T17:38:40.699Z,0.0
2023-01-07T17:43:41.650Z,0.0
2023-01-07T17:48:42.645Z,0.0
2023-01-07T17:53:43.691Z,0.0
2023-01-07T17:58:44.602Z,0.0
2023-01-07T18:03:45.497Z,0.0
2023-01-07T18:08:46.684Z,0.0
2023-01-07T18:13:47.638Z,0.0
2023-01-07T18:18:48.579Z,0.0
2023-01-07T18:23:49.858Z,0.0
2023-01-07T18:28:50.789Z,0.0
2023-01-07T18:33:51.733Z,0.0
2023-01-07T18:38:52.673Z,0.0
2023-01-07T18:43:53.631Z,0.0
2023-01-07T18:48:54.609Z,0.0
2023-01-07T18:53:55.584Z,0.0
2023-01-07T18:58:56.489Z,0.0
2023-01-07T19:03:57.472Z,0.0
2023-01-07T19:08:58.421Z,0.0
2023-01-07T19:13:59.386Z,0.0
2023-01-07T19:19:00.327Z,0.0
2023-01-07T19:24:01.340Z,0.0
2023-01-07T19:29:02.427Z,0.0
2023-01-07T19:34:03.589Z,0.0
2023-01-07T19:39:04.548Z,0.0
2023-01-07T19:44:05.496Z,0.0
2023-01-07T19:49:06.567Z,0.0
2023-01-07T19:54:07.552Z,0.0
2023-01-07T19:59:08.470Z,0.0
2023-01-07T20:04:09.502Z,0.0
2023-01-07T20:09:10.488Z,0.0
2023-01-07T20:14:11.470Z,0.0
2023-01-07T20:19:12.490Z,0.0
2023-01-07T20:24:13.521Z,0.0
2023-01-07T20:29:14.498Z,0.0
2023-01-07T20:34:15.437Z,0.0
2023-01-07T20:39:16.357Z,0.0
2023-01-07T20:44:17.310Z,0.0
2023-01-07T20:49:18.270Z,0.0
2023-01-07T20:54:19.195Z,0.0
2023-01-07T20:59:20.155Z,0.0
2023-01-07T21:04:21.112Z,0.0
2023-01-07T21:09:22.027Z,0.0
2023-01-07T21:14:22.981Z,0.0
2023-01-07T21:19:23.879Z,0.0
2023-01-07T21:24:24.792Z,0.0
2023-01-07T21:29:25.717Z,0.0
2023-01-07T21:34:26.652Z,0.0
2023-01-07T21:39:27.727Z,0.0
2023-01-07T21:44:28.666Z,0.0
2023-01-07T21:49:29.610Z,0.0
2023-01-07T21:54:30.533Z,0.0
2023-01-07T21:59:31.449Z,0.0
2023-01-07T22:04:32.657Z,0.0
2023-01-07T22:09:33.870Z,0.0
2023-01-07T22:14:34.824Z,0.0
2023-01-07T22:19:35.754Z,0.0
2023-01-07T22:24:36.678Z,0.0
2023-01-07T22:29:37.560Z,0.0
2023-01-07T22:34:38.480Z,0.0
2023-01-07T22:39:39.406Z,0.0
2023-01-07T22:44:40.338Z,0.0
2023-01-07T22:49:41.700Z,0.0
2023-01-07T22:54:42.821Z,0.0
2023-01-07T22:59:45.788Z,0.0
2023-01-07T23:04:48.033Z,0.0
2023-01-07T23:09:50.851Z,0.0
2023-01-07T23:14:52.617Z,0.0
2023-01-07T23:19:53.561Z,0.0
2023-01-07T23:24:54.565Z,0.0
2023-01-07T23:29:55.480Z,0.0
2023-01-07T23:34:56.414Z,0.0
2023-01-07T23:39:57.650Z,0.0
2023-01-07T23:44:58.581Z,0.0
2023-01-07T23:49:59.599Z,0.0
2023-01-07T23:55:00.512Z,0.0
